createdAt,value
2019-03-24T00:01:41.050Z,41.80
2019-03-24T00:04:03.106Z,37.33
2019-03-24T00:06:31.589Z,31.23
2019-03-24T00:09:00.030Z,28.47
2019-03-24T00:11:28.489Z,28.80
2019-03-24T00:13:56.955Z,28.33
2019-03-24T00:16:25.413Z,32.40
2019-03-24T00:18:53.853Z,25.00
2019-03-24T00:21:22.316Z,30.27
2019-03-24T00:23:50.775Z,34.10
2019-03-24T00:26:19.382Z,27.57
2019-03-24T00:28:47.822Z,29.17
2019-03-24T00:31:17.847Z,28.00
2019-03-24T00:33:46.290Z,32.23
2019-03-24T00:36:14.753Z,32.90
2019-03-24T00:38:43.199Z,26.43
2019-03-24T00:41:11.711Z,25.80
2019-03-24T00:43:40.258Z,32.83
2019-03-24T00:46:08.902Z,23.07
2019-03-24T00:48:37.322Z,34.23
2019-03-24T00:51:05.918Z,23.50
2019-03-24T00:53:34.375Z,30.70
2019-03-24T00:56:02.812Z,34.37
2019-03-24T00:58:31.259Z,30.03
2019-03-24T01:00:59.792Z,40.13
2019-03-24T01:03:28.214Z,29.27
2019-03-24T01:05:56.657Z,34.17
2019-03-24T01:08:25.311Z,33.40
2019-03-24T01:10:53.757Z,34.13
2019-03-24T01:13:22.333Z,26.03
2019-03-24T01:15:50.819Z,33.10
2019-03-24T01:18:19.411Z,27.43
2019-03-24T01:20:48.012Z,41.43
2019-03-24T01:23:16.514Z,30.33
2019-03-24T01:25:44.952Z,27.13
2019-03-24T01:28:13.414Z,34.00
2019-03-24T01:30:41.868Z,39.00
2019-03-24T01:33:10.320Z,23.73
2019-03-24T01:35:38.816Z,30.13
2019-03-24T01:38:07.313Z,34.70
2019-03-24T01:40:35.802Z,33.10
2019-03-24T01:43:04.330Z,25.57
2019-03-24T01:45:32.801Z,24.40
2019-03-24T01:48:01.241Z,25.00
2019-03-24T01:50:29.706Z,34.83
2019-03-24T01:52:58.183Z,22.47
2019-03-24T01:55:26.628Z,30.60
2019-03-24T01:57:55.093Z,36.27
2019-03-24T02:00:23.577Z,29.90
2019-03-24T02:02:52.094Z,28.47
2019-03-24T02:05:20.560Z,23.97
2019-03-24T02:07:49.011Z,34.33
2019-03-24T02:10:17.572Z,26.83
2019-03-24T02:12:46.024Z,24.90
2019-03-24T02:15:14.864Z,28.07
2019-03-24T02:17:43.344Z,30.80
2019-03-24T02:20:12.932Z,30.67
2019-03-24T02:22:41.514Z,28.20
2019-03-24T02:25:10.096Z,34.87
2019-03-24T02:27:38.534Z,29.00
2019-03-24T02:30:08.344Z,32.10
2019-03-24T02:32:36.894Z,31.27
2019-03-24T02:35:07.060Z,30.23
2019-03-24T02:37:36.076Z,27.63
2019-03-24T02:40:07.545Z,31.80
2019-03-24T02:42:35.983Z,27.87
2019-03-24T02:45:06.209Z,26.63
2019-03-24T02:47:34.637Z,25.47
2019-03-24T02:50:03.084Z,40.50
2019-03-24T02:52:31.545Z,29.33
2019-03-24T02:55:00.020Z,22.03
2019-03-24T02:57:28.671Z,19.13
2019-03-24T02:59:57.845Z,22.97
2019-03-24T03:02:26.354Z,23.07
2019-03-24T03:04:54.836Z,35.07
2019-03-24T03:07:23.927Z,30.17
2019-03-24T03:09:52.550Z,26.37
2019-03-24T03:12:20.997Z,26.47
2019-03-24T03:14:49.546Z,33.43
2019-03-24T03:17:17.984Z,24.63
2019-03-24T03:19:46.509Z,37.37
2019-03-24T03:22:15.733Z,29.60
2019-03-24T03:24:44.215Z,33.27
2019-03-24T03:27:12.644Z,29.77
2019-03-24T03:29:41.073Z,20.53
2019-03-24T03:32:09.513Z,23.83
2019-03-24T03:34:38.066Z,35.07
2019-03-24T03:37:06.595Z,30.10
2019-03-24T03:39:35.040Z,29.63
2019-03-24T03:42:03.602Z,28.73
2019-03-24T03:44:32.546Z,32.17
2019-03-24T03:47:00.984Z,32.80
2019-03-24T03:49:29.455Z,25.70
2019-03-24T03:51:57.897Z,31.10
2019-03-24T03:54:26.896Z,29.07
2019-03-24T03:56:55.353Z,30.73
2019-03-24T03:59:23.803Z,34.17
2019-03-24T04:01:52.320Z,32.50
2019-03-24T04:04:20.832Z,23.13
2019-03-24T04:06:49.294Z,28.57
2019-03-24T04:09:17.775Z,27.13
2019-03-24T04:11:46.202Z,28.17
2019-03-24T04:14:14.709Z,28.30
2019-03-24T04:16:43.211Z,21.77
2019-03-24T04:19:11.649Z,27.73
2019-03-24T04:21:40.072Z,26.97
2019-03-24T04:24:08.514Z,33.40
2019-03-24T04:26:37.024Z,33.00
2019-03-24T04:29:05.513Z,27.57
2019-03-24T04:31:33.944Z,27.07
2019-03-24T04:34:02.404Z,25.17
2019-03-24T04:36:30.868Z,27.87
2019-03-24T04:38:59.315Z,21.47
2019-03-24T04:41:27.846Z,31.70
2019-03-24T04:43:56.263Z,37.93
2019-03-24T04:46:24.700Z,29.63
2019-03-24T04:48:53.189Z,26.10
2019-03-24T04:51:21.667Z,35.23
2019-03-24T04:53:50.129Z,30.00
2019-03-24T04:56:18.584Z,26.87
2019-03-24T04:58:47.043Z,32.80
2019-03-24T05:01:15.491Z,24.23
2019-03-24T05:03:43.970Z,28.93
2019-03-24T05:06:12.861Z,23.10
2019-03-24T05:08:41.710Z,31.07
2019-03-24T05:11:10.154Z,31.60
2019-03-24T05:13:39.136Z,29.97
2019-03-24T05:16:07.607Z,24.50
2019-03-24T05:18:36.056Z,35.53
2019-03-24T05:21:05.290Z,23.23
2019-03-24T05:23:33.757Z,25.43
2019-03-24T05:26:02.200Z,24.63
2019-03-24T05:28:30.630Z,26.37
2019-03-24T05:30:59.074Z,24.40
2019-03-24T05:33:27.516Z,22.50
2019-03-24T05:35:56.015Z,29.70
2019-03-24T05:38:24.480Z,25.93
2019-03-24T05:40:52.959Z,24.83
2019-03-24T05:43:21.471Z,30.50
2019-03-24T05:45:49.909Z,24.77
2019-03-24T05:48:18.335Z,23.17
2019-03-24T05:50:46.778Z,26.60
2019-03-24T05:53:15.241Z,28.03
2019-03-24T05:55:43.679Z,27.97
2019-03-24T05:58:12.124Z,26.57
2019-03-24T06:00:40.562Z,30.40
2019-03-24T06:03:08.999Z,24.60
2019-03-24T06:05:37.467Z,33.83
2019-03-24T06:08:05.899Z,32.97
2019-03-24T06:10:34.343Z,22.73
2019-03-24T06:13:02.842Z,23.50
2019-03-24T06:15:31.297Z,25.53
2019-03-24T06:17:59.729Z,20.90
2019-03-24T06:20:28.262Z,27.50
2019-03-24T06:22:56.717Z,25.67
2019-03-24T06:25:25.176Z,25.00
2019-03-24T06:27:53.640Z,26.63
2019-03-24T06:30:22.170Z,27.60
2019-03-24T06:32:53.039Z,25.87
2019-03-24T06:35:21.494Z,23.67
2019-03-24T06:37:49.951Z,28.30
2019-03-24T06:40:19.809Z,31.90
2019-03-24T06:42:48.559Z,29.30
2019-03-24T06:45:27.720Z,26.40
2019-03-24T06:47:57.606Z,25.67
2019-03-24T06:50:18.742Z,26.63
2019-03-24T06:52:47.263Z,26.77
2019-03-24T06:55:15.784Z,23.97
2019-03-24T06:57:44.245Z,21.07
2019-03-24T07:00:13.129Z,28.40
2019-03-24T07:02:41.576Z,18.50
2019-03-24T07:05:10.548Z,23.00
2019-03-24T07:07:38.985Z,24.03
2019-03-24T07:10:11.359Z,17.70
2019-03-24T07:12:40.538Z,22.07
2019-03-24T07:15:09.911Z,21.40
2019-03-24T07:17:38.380Z,23.17
2019-03-24T07:20:08.295Z,17.93
2019-03-24T07:22:36.690Z,14.63
2019-03-24T07:25:06.199Z,19.83
2019-03-24T07:27:34.619Z,15.90
2019-03-24T07:30:04.795Z,19.07
2019-03-24T07:32:33.255Z,20.80
2019-03-24T07:35:01.699Z,15.00
2019-03-24T07:37:30.134Z,19.73
2019-03-24T07:40:01.783Z,21.30
2019-03-24T07:42:30.210Z,18.53
2019-03-24T07:44:58.701Z,28.13
2019-03-24T07:47:27.128Z,24.27
2019-03-24T07:49:55.580Z,22.07
2019-03-24T07:52:24.030Z,21.70
2019-03-24T07:54:52.520Z,20.60
2019-03-24T07:57:20.982Z,22.43
2019-03-24T07:59:49.454Z,23.13
2019-03-24T08:02:17.949Z,25.30
2019-03-24T08:04:46.383Z,24.73
2019-03-24T08:07:14.797Z,26.97
2019-03-24T08:09:43.269Z,18.67
2019-03-24T08:12:11.745Z,19.97
2019-03-24T08:14:40.170Z,17.77
2019-03-24T08:17:08.649Z,21.60
2019-03-24T08:19:37.079Z,16.60
2019-03-24T08:22:05.582Z,21.57
2019-03-24T08:24:34.078Z,24.83
2019-03-24T08:27:02.608Z,22.83
2019-03-24T08:29:31.040Z,24.50
2019-03-24T08:31:59.481Z,20.63
2019-03-24T08:34:28.882Z,21.37
2019-03-24T08:36:57.355Z,23.50
2019-03-24T08:39:25.795Z,18.53
2019-03-24T08:41:54.338Z,18.07
2019-03-24T08:44:22.791Z,22.10
2019-03-24T08:46:51.224Z,21.33
2019-03-24T08:49:19.812Z,27.73
2019-03-24T08:51:48.503Z,22.87
2019-03-24T08:54:17.382Z,23.23
2019-03-24T08:56:46.056Z,28.60
2019-03-24T08:59:14.637Z,20.00
2019-03-24T09:01:43.085Z,20.37
2019-03-24T09:04:11.681Z,21.37
2019-03-24T09:06:40.234Z,19.53
2019-03-24T09:09:08.717Z,21.30
2019-03-24T09:11:37.428Z,22.10
2019-03-24T09:14:06.182Z,23.97
2019-03-24T09:16:34.981Z,20.63
2019-03-24T09:19:03.593Z,19.30
2019-03-24T09:21:32.376Z,16.67
2019-03-24T09:24:01.177Z,22.30
2019-03-24T09:26:29.855Z,22.90
2019-03-24T09:28:59.356Z,19.77
2019-03-24T09:31:28.364Z,19.40
2019-03-24T09:33:58.440Z,19.93
2019-03-24T09:36:27.100Z,26.73
2019-03-24T09:38:55.649Z,19.93
2019-03-24T09:41:24.121Z,21.07
2019-03-24T09:43:52.697Z,25.63
2019-03-24T09:46:21.229Z,23.17
2019-03-24T09:48:50.571Z,27.23
2019-03-24T09:51:21.172Z,27.30
2019-03-24T09:53:49.802Z,14.17
2019-03-24T09:56:18.310Z,27.33
2019-03-24T09:58:46.977Z,20.77
2019-03-24T10:01:15.545Z,19.90
2019-03-24T10:03:44.038Z,19.47
2019-03-24T10:06:12.658Z,20.57
2019-03-24T10:08:47.036Z,19.10
2019-03-24T10:11:11.799Z,21.17
2019-03-24T10:13:40.503Z,18.27
2019-03-24T10:16:09.004Z,16.57
2019-03-24T10:18:37.547Z,14.00
2019-03-24T10:21:06.148Z,21.70
2019-03-24T10:23:34.748Z,20.03
2019-03-24T10:26:03.279Z,13.07
2019-03-24T10:28:31.978Z,17.33
2019-03-24T10:31:00.684Z,13.27
2019-03-24T10:33:29.236Z,17.57
2019-03-24T10:35:57.782Z,14.40
2019-03-24T10:38:26.579Z,19.57
2019-03-24T10:40:55.182Z,18.27
2019-03-24T10:43:24.347Z,23.17
2019-03-24T10:45:52.819Z,18.47
2019-03-24T10:48:21.532Z,18.50
2019-03-24T10:50:50.227Z,21.00
2019-03-24T10:53:18.902Z,18.03
2019-03-24T10:55:47.513Z,22.47
2019-03-24T10:58:16.076Z,14.93
2019-03-24T11:00:45.116Z,16.53
2019-03-24T11:03:13.795Z,19.47
2019-03-24T11:05:42.538Z,14.87
2019-03-24T11:08:11.267Z,20.73
2019-03-24T11:10:39.927Z,18.33
2019-03-24T11:13:11.501Z,15.77
2019-03-24T11:15:40.144Z,16.27
2019-03-24T11:18:08.798Z,19.50
2019-03-24T11:20:37.373Z,18.40
2019-03-24T11:23:06.000Z,17.07
2019-03-24T11:25:34.618Z,19.20
2019-03-24T11:28:03.245Z,21.23
2019-03-24T11:30:31.915Z,17.73
2019-03-24T11:33:00.385Z,21.30
2019-03-24T11:35:29.012Z,19.03
2019-03-24T11:37:58.211Z,16.27
2019-03-24T11:40:26.656Z,17.97
2019-03-24T11:42:55.199Z,20.13
2019-03-24T11:45:23.683Z,15.73
2019-03-24T11:47:52.464Z,16.97
2019-03-24T11:50:21.029Z,15.53
2019-03-24T11:52:49.751Z,19.90
2019-03-24T11:55:18.436Z,13.67
2019-03-24T11:57:47.074Z,19.37
2019-03-24T12:00:17.486Z,12.97
2019-03-24T12:02:46.291Z,18.47
2019-03-24T12:05:14.972Z,14.57
2019-03-24T12:07:43.623Z,13.50
2019-03-24T12:10:12.364Z,15.40
2019-03-24T12:12:40.841Z,14.27
2019-03-24T12:15:10.247Z,17.33
2019-03-24T12:17:39.942Z,15.43
2019-03-24T12:20:10.209Z,16.90
2019-03-24T12:22:38.921Z,10.37
2019-03-24T12:25:07.607Z,8.40
2019-03-24T12:27:36.202Z,13.07
2019-03-24T12:30:09.522Z,8.60
2019-03-24T12:32:38.068Z,10.53
2019-03-24T12:35:08.588Z,13.90
2019-03-24T12:37:37.169Z,16.07
2019-03-24T12:40:09.665Z,13.50
2019-03-24T12:42:38.819Z,16.37
2019-03-24T12:45:12.942Z,20.00
2019-03-24T12:47:43.122Z,20.23
2019-03-24T12:50:11.909Z,17.57
2019-03-24T12:52:40.451Z,19.47
2019-03-24T12:55:09.084Z,17.77
2019-03-24T12:57:37.697Z,15.23
2019-03-24T13:00:11.527Z,15.03
2019-03-24T13:02:40.183Z,12.97
2019-03-24T13:05:10.748Z,14.33
2019-03-24T13:07:39.522Z,12.57
2019-03-24T13:10:08.769Z,16.50
2019-03-24T13:12:37.236Z,14.37
2019-03-24T13:15:07.812Z,19.20
2019-03-24T13:17:36.477Z,15.30
2019-03-24T13:20:06.931Z,18.13
2019-03-24T13:22:35.584Z,17.17
2019-03-24T13:25:06.869Z,20.03
2019-03-24T13:27:35.447Z,12.53
2019-03-24T13:30:06.956Z,20.50
2019-03-24T13:32:35.553Z,16.13
2019-03-24T13:35:04.279Z,21.97
2019-03-24T13:37:32.798Z,19.23
2019-03-24T13:40:01.431Z,16.50
2019-03-24T13:42:30.122Z,16.17
2019-03-24T13:44:58.697Z,20.60
2019-03-24T13:47:27.282Z,18.13
2019-03-24T13:49:55.834Z,17.80
2019-03-24T13:52:25.273Z,13.77
2019-03-24T13:54:53.903Z,21.70
2019-03-24T13:57:22.455Z,24.93
2019-03-24T13:59:50.980Z,17.10
2019-03-24T14:02:19.602Z,14.27
2019-03-24T14:04:48.256Z,16.80
2019-03-24T14:07:16.840Z,17.73
2019-03-24T14:09:45.423Z,17.03
2019-03-24T14:12:14.008Z,14.57
2019-03-24T14:14:42.780Z,20.30
2019-03-24T14:17:11.316Z,14.47
2019-03-24T14:19:39.806Z,17.17
2019-03-24T14:22:08.495Z,17.67
2019-03-24T14:24:37.111Z,17.40
2019-03-24T14:27:06.350Z,10.70
2019-03-24T14:29:35.031Z,11.60
2019-03-24T14:32:03.635Z,15.43
2019-03-24T14:34:32.264Z,12.43
2019-03-24T14:37:00.797Z,15.20
2019-03-24T14:39:29.407Z,13.13
2019-03-24T14:41:58.088Z,15.93
2019-03-24T14:44:26.623Z,16.13
2019-03-24T14:46:55.082Z,21.27
2019-03-24T14:49:23.532Z,15.90
2019-03-24T14:51:52.044Z,15.37
2019-03-24T14:54:20.500Z,9.27
2019-03-24T14:56:48.919Z,11.10
2019-03-24T14:59:17.386Z,19.47
2019-03-24T15:01:45.867Z,14.37
2019-03-24T15:04:14.313Z,17.43
2019-03-24T15:06:42.745Z,12.73
2019-03-24T15:09:11.265Z,14.77
2019-03-24T15:11:39.706Z,16.17
2019-03-24T15:14:08.145Z,10.90
2019-03-24T15:16:36.583Z,12.53
2019-03-24T15:19:05.221Z,11.97
2019-03-24T15:21:33.669Z,12.10
2019-03-24T15:24:02.104Z,16.83
2019-03-24T15:26:30.635Z,17.20
2019-03-24T15:29:06.301Z,16.27
2019-03-24T15:31:30.592Z,13.87
2019-03-24T15:33:59.007Z,13.23
2019-03-24T15:36:27.490Z,10.13
2019-03-24T15:38:55.901Z,8.17
2019-03-24T15:41:24.346Z,9.93
2019-03-24T15:43:52.783Z,10.00
2019-03-24T15:46:21.218Z,11.00
2019-03-24T15:48:50.416Z,9.97
2019-03-24T15:51:19.028Z,9.90
2019-03-24T15:53:47.429Z,7.53
2019-03-24T15:56:15.864Z,10.37
2019-03-24T15:58:44.328Z,7.03
2019-03-24T16:01:13.154Z,9.13
2019-03-24T16:03:41.589Z,5.33
2019-03-24T16:06:10.306Z,5.00
2019-03-24T16:08:38.800Z,6.50
2019-03-24T16:11:07.274Z,7.37
2019-03-24T16:13:35.747Z,5.43
2019-03-24T16:16:04.264Z,6.60
2019-03-24T16:18:32.707Z,10.67
2019-03-24T16:21:01.166Z,9.70
2019-03-24T16:23:29.626Z,9.33
2019-03-24T16:25:58.051Z,10.97
2019-03-24T16:28:26.590Z,12.70
2019-03-24T16:30:55.085Z,17.40
2019-03-24T16:33:23.512Z,11.83
2019-03-24T16:35:52.037Z,8.63
2019-03-24T16:38:20.498Z,13.50
2019-03-24T16:40:48.967Z,10.80
2019-03-24T16:43:17.414Z,13.30
2019-03-24T16:45:47.299Z,6.80
2019-03-24T16:48:15.962Z,8.47
2019-03-24T16:50:46.085Z,9.83
2019-03-24T16:53:14.498Z,7.00
2019-03-24T16:55:42.939Z,11.20
2019-03-24T16:58:11.400Z,6.23
2019-03-24T17:00:39.897Z,9.87
2019-03-24T17:03:08.358Z,6.50
2019-03-24T17:05:36.940Z,6.87
2019-03-24T17:08:05.452Z,5.33
2019-03-24T17:10:33.925Z,3.00
2019-03-24T17:13:02.358Z,4.17
2019-03-24T17:15:30.821Z,5.97
2019-03-24T17:17:59.267Z,5.80
2019-03-24T17:20:27.774Z,3.00
2019-03-24T17:22:56.210Z,3.90
2019-03-24T17:25:24.667Z,3.33
2019-03-24T17:27:53.083Z,3.23
2019-03-24T17:30:21.700Z,3.93
2019-03-24T17:32:50.209Z,5.80
2019-03-24T17:35:18.687Z,5.20
2019-03-24T17:37:47.169Z,4.10
2019-03-24T17:40:15.657Z,5.10
2019-03-24T17:42:44.288Z,5.13
2019-03-24T17:45:13.880Z,6.23
2019-03-24T17:47:42.382Z,7.13
2019-03-24T17:50:12.290Z,3.20
2019-03-24T17:52:40.652Z,6.77
2019-03-24T17:55:09.665Z,4.17
2019-03-24T17:57:38.109Z,5.20
2019-03-24T18:00:16.208Z,4.83
2019-03-24T18:02:44.654Z,6.03
2019-03-24T18:05:15.018Z,3.60
2019-03-24T18:07:43.598Z,4.03
2019-03-24T18:10:12.369Z,5.20
2019-03-24T18:12:40.861Z,7.43
2019-03-24T18:15:11.354Z,6.17
2019-03-24T18:17:39.801Z,6.80
2019-03-24T18:20:09.260Z,4.07
2019-03-24T18:22:37.815Z,6.23
2019-03-24T18:25:08.214Z,4.73
2019-03-24T18:27:36.999Z,7.37
2019-03-24T18:30:09.212Z,6.73
2019-03-24T18:32:38.111Z,9.67
2019-03-24T18:35:12.475Z,5.90
2019-03-24T18:37:44.789Z,6.47
2019-03-24T18:40:15.227Z,8.80
2019-03-24T18:42:45.756Z,5.40
2019-03-24T18:45:19.666Z,7.73
2019-03-24T18:47:48.311Z,9.07
2019-03-24T18:50:17.041Z,4.70
2019-03-24T18:52:46.389Z,7.30
2019-03-24T18:55:17.501Z,6.70
2019-03-24T18:57:47.679Z,5.93
2019-03-24T19:00:17.137Z,8.43
2019-03-24T19:02:45.720Z,7.23
2019-03-24T19:05:14.665Z,7.00
2019-03-24T19:07:43.104Z,8.23
2019-03-24T19:10:12.908Z,5.40
2019-03-24T19:12:41.557Z,9.27
2019-03-24T19:15:12.649Z,8.13
2019-03-24T19:17:41.342Z,6.70
2019-03-24T19:20:10.433Z,7.77
2019-03-24T19:22:38.919Z,5.90
2019-03-24T19:25:09.035Z,8.17
2019-03-24T19:27:37.582Z,7.53
2019-03-24T19:30:18.075Z,8.23
2019-03-24T19:32:47.328Z,9.73
2019-03-24T19:35:16.614Z,10.30
2019-03-24T19:37:46.683Z,6.80
2019-03-24T19:40:32.255Z,9.53
2019-03-24T19:43:00.810Z,8.83
2019-03-24T19:45:29.347Z,8.30
2019-03-24T19:47:58.746Z,7.57
2019-03-24T19:50:27.218Z,10.30
2019-03-24T19:52:56.092Z,10.33
2019-03-24T19:55:25.286Z,10.80
2019-03-24T19:57:53.771Z,8.60
2019-03-24T20:00:22.237Z,8.20
2019-03-24T20:02:50.737Z,9.97
2019-03-24T20:05:19.207Z,9.57
2019-03-24T20:07:48.402Z,6.97
2019-03-24T20:10:17.142Z,7.80
2019-03-24T20:12:45.607Z,10.90
2019-03-24T20:15:14.174Z,12.50
2019-03-24T20:17:42.637Z,12.57
2019-03-24T20:20:11.367Z,11.77
2019-03-24T20:22:39.793Z,8.67
2019-03-24T20:25:08.403Z,9.47
2019-03-24T20:27:36.809Z,7.80
2019-03-24T20:30:08.815Z,7.77
2019-03-24T20:32:37.244Z,9.57
2019-03-24T20:35:07.812Z,7.37
2019-03-24T20:37:36.244Z,9.13
2019-03-24T20:40:06.390Z,8.93
2019-03-24T20:42:34.866Z,10.03
2019-03-24T20:45:03.628Z,6.83
2019-03-24T20:47:32.059Z,5.43
2019-03-24T20:50:00.554Z,8.70
2019-03-24T20:52:28.993Z,10.90
2019-03-24T20:54:57.616Z,10.57
2019-03-24T20:57:26.150Z,8.53
2019-03-24T20:59:54.649Z,11.67
2019-03-24T21:02:23.396Z,7.50
2019-03-24T21:04:51.824Z,10.63
2019-03-24T21:07:20.383Z,9.27
2019-03-24T21:09:48.867Z,8.67
2019-03-24T21:12:17.282Z,8.60
2019-03-24T21:14:45.745Z,12.90
2019-03-24T21:17:14.351Z,13.03
2019-03-24T21:19:42.842Z,9.40
2019-03-24T21:22:11.272Z,7.53
2019-03-24T21:24:39.841Z,11.97
2019-03-24T21:27:08.647Z,9.37
2019-03-24T21:29:37.106Z,11.30
2019-03-24T21:32:07.053Z,10.60
2019-03-24T21:34:35.558Z,10.13
2019-03-24T21:37:04.011Z,6.93
2019-03-24T21:39:32.528Z,13.07
2019-03-24T21:42:00.974Z,8.97
2019-03-24T21:44:29.429Z,12.23
2019-03-24T21:46:57.897Z,10.50
2019-03-24T21:49:26.625Z,10.60
2019-03-24T21:51:55.605Z,10.47
2019-03-24T21:54:24.444Z,8.27
2019-03-24T21:56:53.469Z,7.40
2019-03-24T21:59:22.050Z,12.43
2019-03-24T22:01:52.437Z,8.60
2019-03-24T22:04:20.858Z,11.23
2019-03-24T22:06:49.972Z,10.47
2019-03-24T22:09:18.476Z,11.70
2019-03-24T22:11:47.180Z,11.37
2019-03-24T22:14:16.539Z,11.80
2019-03-24T22:16:45.293Z,9.27
2019-03-24T22:19:14.047Z,12.70
2019-03-24T22:21:44.134Z,10.27
2019-03-24T22:24:12.584Z,12.87
2019-03-24T22:26:41.031Z,11.83
2019-03-24T22:29:09.539Z,12.60
2019-03-24T22:31:38.027Z,11.90
2019-03-24T22:34:06.469Z,12.43
2019-03-24T22:36:34.906Z,11.13
2019-03-24T22:39:04.534Z,12.50
2019-03-24T22:41:32.961Z,9.60
2019-03-24T22:44:01.441Z,7.67
2019-03-24T22:46:29.896Z,19.90
2019-03-24T22:48:58.324Z,14.93
2019-03-24T22:51:26.755Z,15.10
2019-03-24T22:54:03.144Z,15.57
2019-03-24T22:56:25.357Z,16.47
2019-03-24T22:58:53.971Z,13.80
2019-03-24T23:01:22.546Z,10.63
2019-03-24T23:03:51.081Z,12.37
2019-03-24T23:06:19.531Z,11.60
2019-03-24T23:08:47.970Z,10.47
2019-03-24T23:11:16.418Z,14.97
2019-03-24T23:13:44.851Z,8.37
2019-03-24T23:16:13.360Z,15.63
2019-03-24T23:18:41.830Z,11.57
2019-03-24T23:21:10.336Z,14.27
2019-03-24T23:23:38.815Z,11.83
2019-03-24T23:26:07.355Z,15.10
2019-03-24T23:28:35.818Z,13.83
2019-03-24T23:31:04.426Z,14.10
2019-03-24T23:33:32.880Z,14.57
2019-03-24T23:36:01.339Z,13.27
2019-03-24T23:38:29.778Z,8.87
2019-03-24T23:40:58.221Z,13.73
2019-03-24T23:43:26.679Z,13.17
2019-03-24T23:45:55.101Z,7.03
2019-03-24T23:48:23.550Z,14.50
2019-03-24T23:50:52.021Z,12.80
2019-03-24T23:53:20.441Z,13.30
2019-03-24T23:55:48.879Z,13.60
2019-03-24T23:58:17.347Z,11.20
